KLAN/LAN METAR and TAF weather

Enter ICAO airport designator
Station Type Date Time Source
KLAN METAR 2020/09/18 22:53 UTC NOAA

KLAN 182253Z 06005KT 10SM CLR 12/01 A3034 RMK AO2 SLP279 T01220006


Station Type Date Time Source
KLAN Decoded METAR 2020/09/18 22:53 UTC NOAA

CAPITAL CITY AIRPORT, MI, United States (KLAN) 42-47N 084-35W 264M
Sep 18, 2020 - 06:53 PM EDT / 2020.09.18 2253 UTC
Wind: from the ENE (060 degrees) at 6 MPH (5 KT):0
Visibility: 10 mile(s):0
Sky conditions: clear
Temperature: 54.0 F (12.2 C)
Dew Point: 33.1 F (0.6 C)
Relative Humidity: 44%
Pressure (altimeter): 30.34 in. Hg (1027 hPa)
ob: KLAN 182253Z 06005KT 10SM CLR 12/01 A3034 RMK AO2 SLP279 T01220006
cycle: 23

Station Type Date Time Source
KLAN TAF 2020/09/18 18:24 UTC NOAA

TAF KLAN 181721Z 1818/1918 03008G15KT P6SM FEW040
FM182100 02008KT P6SM FEW060
FM182300 00000KT P6SM SKC
FM191200 09004KT P6SM FEW250

Example: see airport list